Fargo, ND (58108)

12:05 PM CDT on April 26, 2017 (GMT -0500)
Roosevelt | | Change Station
Active Advisory: Winter Weather Advisory

Elev 273 ft 46.89 °N, 96.79 °W | Updated 35 seconds ago

Light Snow
Light Snow Mist
30.5 °F
Feels Like 30 °F
N
3.0
Wind Variable Wind from NE

Today
High -- | Low -- °F
--% Chance of Precip.
Yesterday
High -- | Low -- °F
Precip. -- in
Pressure 29.79 in
Visibility 5.0 miles
Clouds Few 1300 ft
Overcast 3800 ft
Windchill 30 °F
Dew Point 26 °F
Humidity 83%
Rainfall 0.02 in
Snow Depth Not available.
6:19 AM 8:31 PM
New Moon, 0% visible
METAR KFAR 261653Z 01015KT 5SM -SN BR FEW013 OVC038 M02/M03 A2975 RMK AO2 PK WND 01027/1614 UPE24SNB24 SLP086 P0000 T10171033
Pressure 29.79 in
Visibility 5.0 miles
Clouds Few 1300 ft
Overcast 3800 ft
Windchill 30 °F
Dew Point 26 °F
Humidity 83%
Rainfall 0.02 in
Snow Depth Not available.
6:19 AM 8:31 PM
New Moon, 0% visible
METAR KFAR 261653Z 01015KT 5SM -SN BR FEW013 OVC038 M02/M03 A2975 RMK AO2 PK WND 01027/1614 UPE24SNB24 SLP086 P0000 T10171033

Get Your Daily Forecast Email!

Thanks for signing up!

Be on the lookout for a verification email in your inbox.

You'll start receiving severe weather alerts in your inbox..

×

10-Day Weather Forecast

Almanac

Astronomy

Apr. 26, 2017 Rise Set
Actual Time
Civil Twilight
Nautical Twilight
Astronomical Twilight
Moon
Length of Visible Light
Length of Day
Tomorrow will be .
, % of the Moon is Illuminated

Today's Extremes

State Highs State Lows

Community

WunderPhotos

WunderBlog® & News

Nearby

Air Quality

  Air Quality AQ Index Pollutant
Not available.

Snow Depth

Station Depth Elevation

Earthquake Activity

City Distance Mag. Time & Date
Minimum magnitude displayed is 2.5.

Coastal Water Temperatures

Place Temperature

Stations

Nearby Weather Stations

Station Location Temp. Windchill Dew Point Humidity Wind Precip. Elev Updated Type
                   

Watches & Warnings

Winter Weather Advisory
Issued: 10:49 AM CDT Apr. 26, 2017 – National Weather Service

... Winter Weather Advisory remains in effect until 7 PM CDT this
evening...

* timing... expect snow to continue with possibly some mixing of
precipitation types this afternoon, diminishing early this
evening.

* Precipitation rates... the heaviest snowfall rates will occur
late this morning and into the early afternoon.

* Snow and ice accumulations... additional snow accumulations of
1 to 3 inches and ice accumulations of a light icing are
expected.

* Winds / visibilities... look for reduced visibilities at times.

* Impacts... plan on slippery Road conditions throughout the
afternoon.

Precautionary/preparedness actions...

A Winter Weather Advisory means that periods of snow, sleet or
freezing rain will cause travel difficulties. Be prepared for
slippery roads and limited visibilities, and use caution while
driving. The latest Road conditions for the state you are calling
from can be obtained by calling 5 1 1.